createdAt,value
2019-04-21T00:00:32.151Z,102559.93
2019-04-21T00:03:11.737Z,102559.25
2019-04-21T00:06:13.915Z,102551.05
2019-04-21T00:08:48.778Z,102551.56
2019-04-21T00:11:37.786Z,102557.58
2019-04-21T00:14:00.960Z,102553.23
2019-04-21T00:16:32.206Z,102549.87
2019-04-21T00:19:10.275Z,102543.18
2019-04-21T00:22:05.699Z,102548.19
2019-04-21T00:24:45.070Z,102543.83
2019-04-21T00:27:21.661Z,102546.02
2019-04-21T00:29:58.154Z,102545.69
2019-04-21T00:32:29.295Z,102538.17
2019-04-21T00:34:56.278Z,102539.48
2019-04-21T00:37:45.209Z,102538.17
2019-04-21T00:40:23.511Z,102532.30
2019-04-21T00:43:04.977Z,102532.14
2019-04-21T00:45:34.907Z,102533.60
2019-04-21T00:48:16.985Z,102527.73
2019-04-21T00:51:03.432Z,102530.41
2019-04-21T00:56:46.677Z,102525.06
2019-04-21T00:59:28.181Z,102519.70
2019-04-21T01:02:09.934Z,102518.71
2019-04-21T01:04:53.889Z,102516.33
2019-04-21T01:07:37.072Z,102514.83
2019-04-21T01:10:05.305Z,102512.48
2019-04-21T01:12:51.059Z,102515.46
2019-04-21T01:15:37.426Z,102510.79
2019-04-21T01:18:06.385Z,102513.41
2019-04-21T01:20:21.795Z,102513.22
2019-04-21T01:23:04.437Z,102506.89
2019-04-21T01:26:05.205Z,102509.56
2019-04-21T01:28:39.977Z,102505.34
2019-04-21T01:31:17.404Z,102503.48
2019-04-21T01:34:09.896Z,102503.61
2019-04-21T01:36:49.827Z,102494.76
2019-04-21T01:39:35.028Z,102495.86
2019-04-21T01:42:03.815Z,102491.19
2019-04-21T01:44:41.856Z,102488.65
2019-04-21T01:47:16.154Z,102483.14
2019-04-21T01:49:52.774Z,102482.61
2019-04-21T01:52:50.200Z,102476.30
2019-04-21T01:55:54.126Z,102477.78
2019-04-21T01:58:23.027Z,102483.90
2019-04-21T02:01:15.961Z,102478.92
2019-04-21T02:03:58.376Z,102483.19
2019-04-21T02:06:33.786Z,102480.69
2019-04-21T02:09:03.361Z,102480.50
2019-04-21T02:12:05.479Z,102476.49
2019-04-21T02:14:50.385Z,102466.07
2019-04-21T02:17:20.386Z,102463.38
2019-04-21T02:19:55.237Z,102464.39
2019-04-21T02:22:46.332Z,102468.52
2019-04-21T02:25:14.000Z,102471.47
2019-04-21T02:27:49.816Z,102466.44
2019-04-21T02:30:47.516Z,102453.09
2019-04-21T02:33:32.429Z,102461.27
2019-04-21T02:38:39.164Z,102456.59
2019-04-21T02:41:09.508Z,102456.91
2019-04-21T02:43:46.122Z,102454.30
2019-04-21T02:46:23.719Z,102452.70
2019-04-21T02:51:52.551Z,102447.44
2019-04-21T02:54:48.037Z,102444.00
2019-04-21T02:57:08.986Z,102437.94
2019-04-21T02:59:50.050Z,102433.81
2019-04-21T03:03:19.919Z,102434.98
2019-04-21T03:06:20.341Z,102433.69
2019-04-21T03:08:59.028Z,102432.16
2019-04-21T03:11:24.153Z,102429.47
2019-04-21T03:14:14.017Z,102426.77
2019-04-21T03:16:35.851Z,102421.22
2019-04-21T03:19:36.470Z,102417.55
2019-04-21T03:22:12.966Z,102417.70
2019-04-21T03:24:53.961Z,102414.37
2019-04-21T03:29:59.423Z,102416.56
2019-04-21T03:33:16.578Z,102411.86
2019-04-21T03:35:49.029Z,102405.05
2019-04-21T03:43:12.530Z,102404.50
2019-04-21T03:45:42.323Z,102406.52
2019-04-21T03:48:35.597Z,102404.25
2019-04-21T03:50:56.653Z,102396.50
2019-04-21T04:01:40.621Z,102389.97
2019-04-21T04:04:26.292Z,102390.52
2019-04-21T04:07:26.371Z,102392.67
2019-04-21T04:09:52.217Z,102392.52
2019-04-21T04:12:18.977Z,102382.73
2019-04-21T04:15:16.151Z,102385.42
2019-04-21T04:18:04.540Z,102379.40
2019-04-21T04:20:43.727Z,102380.09
2019-04-21T04:23:42.413Z,102377.62
2019-04-21T04:29:04.334Z,102383.86
2019-04-21T04:34:18.600Z,102380.86
2019-04-21T04:43:05.152Z,102359.80
2019-04-21T04:45:32.379Z,102383.20
2019-04-21T04:48:11.100Z,102382.54
2019-04-21T04:56:31.718Z,102382.53
2019-04-21T04:59:23.395Z,102387.45
2019-04-21T05:04:35.486Z,102383.53
2019-04-21T05:07:16.522Z,102371.96
2019-04-21T05:10:07.530Z,102383.34
2019-04-21T05:12:27.126Z,102384.20
2019-04-21T05:14:59.365Z,102381.12
2019-04-21T05:20:12.694Z,102378.20
2019-04-21T05:22:42.295Z,102378.60
2019-04-21T05:25:21.121Z,102375.39
2019-04-21T05:27:54.020Z,102373.76
2019-04-21T05:30:50.218Z,102365.16
2019-04-21T05:33:53.038Z,102365.25
2019-04-21T05:36:59.537Z,102361.28
2019-04-21T05:39:57.005Z,102360.05
2019-04-21T05:42:47.591Z,102366.62
2019-04-21T05:45:36.296Z,102362.13
2019-04-21T05:48:25.579Z,102362.17
2019-04-21T05:50:57.720Z,102354.20
2019-04-21T05:53:35.697Z,102360.59
2019-04-21T05:56:17.438Z,102371.62
2019-04-21T05:58:48.280Z,102357.95
2019-04-21T06:01:37.785Z,102352.27
2019-04-21T06:04:45.060Z,102348.08
2019-04-21T06:07:04.782Z,102349.59
2019-04-21T06:09:40.576Z,102349.56
2019-04-21T06:12:10.790Z,102347.39
2019-04-21T06:14:52.233Z,102344.84
2019-04-21T06:17:25.285Z,102345.13
2019-04-21T06:20:05.928Z,102343.06
2019-04-21T06:22:39.700Z,102337.02
2019-04-21T06:28:04.623Z,102338.64
2019-04-21T06:31:08.053Z,102336.72
2019-04-21T06:33:44.806Z,102338.22
2019-04-21T06:36:42.534Z,102335.98
2019-04-21T06:39:31.935Z,102338.91
2019-04-21T06:41:48.543Z,102337.67
2019-04-21T06:44:22.684Z,102335.39
2019-04-21T06:47:04.926Z,102330.74
2019-04-21T06:49:30.265Z,102333.88
2019-04-21T06:52:44.781Z,102334.01
2019-04-21T06:55:12.098Z,102330.92
2019-04-21T06:57:39.054Z,102326.78
2019-04-21T07:00:27.822Z,102324.73
2019-04-21T07:03:11.027Z,102326.31
2019-04-21T07:05:41.300Z,102323.70
2019-04-21T07:08:30.941Z,102320.20
2019-04-21T07:11:08.453Z,102312.86
2019-04-21T07:13:53.463Z,102309.52
2019-04-21T07:16:37.165Z,102310.19
2019-04-21T07:19:15.663Z,102305.58
2019-04-21T07:21:45.536Z,102306.80
2019-04-21T07:27:02.372Z,102302.50
2019-04-21T07:29:54.962Z,102299.07
2019-04-21T07:32:34.818Z,102296.20
2019-04-21T07:35:09.757Z,102296.01
2019-04-21T07:37:49.269Z,102296.67
2019-04-21T07:40:22.347Z,102302.97
2019-04-21T07:43:05.545Z,102294.69
2019-04-21T07:45:40.821Z,102286.59
2019-04-21T07:48:29.563Z,102287.22
2019-04-21T07:51:45.259Z,102282.41
2019-04-21T07:54:37.381Z,102274.27
2019-04-21T07:57:00.588Z,102274.48
2019-04-21T08:00:21.282Z,102276.32
2019-04-21T08:02:44.706Z,102272.34
2019-04-21T08:05:35.546Z,102265.84
2019-04-21T08:07:59.208Z,102267.02
2019-04-21T08:10:39.135Z,102262.95
2019-04-21T08:13:35.242Z,102270.35
2019-04-21T08:16:10.975Z,102259.70
2019-04-21T08:18:45.545Z,102262.80
2019-04-21T08:21:20.642Z,102262.80
2019-04-21T08:23:58.263Z,102255.11
2019-04-21T08:26:38.297Z,102257.28
2019-04-21T08:29:19.176Z,102258.76
2019-04-21T08:31:56.519Z,102255.31
2019-04-21T08:37:04.196Z,102249.07
2019-04-21T08:39:49.765Z,102250.41
2019-04-21T08:42:18.524Z,102251.52
2019-04-21T08:45:06.029Z,102245.61
2019-04-21T08:47:36.461Z,102247.05
2019-04-21T08:50:11.240Z,102238.62
2019-04-21T08:56:04.447Z,102242.48
2019-04-21T08:59:10.926Z,102240.15
2019-04-21T09:01:55.256Z,102226.95
2019-04-21T09:04:30.635Z,102226.95
2019-04-21T09:07:12.816Z,102229.75
2019-04-21T09:09:58.034Z,102224.09
2019-04-21T09:12:37.276Z,102222.89
2019-04-21T09:15:30.025Z,102215.67
2019-04-21T09:17:53.609Z,102210.16
2019-04-21T09:23:23.328Z,102204.64
2019-04-21T09:25:58.931Z,102200.20
2019-04-21T09:28:32.672Z,102201.36
2019-04-21T09:30:58.493Z,102190.23
2019-04-21T09:33:37.662Z,102182.90
2019-04-21T09:36:13.048Z,102182.90
2019-04-21T09:38:57.725Z,102185.28
2019-04-21T09:41:40.977Z,102183.91
2019-04-21T09:44:25.958Z,102176.50
2019-04-21T09:46:56.619Z,102177.72
2019-04-21T09:49:32.858Z,102168.53
2019-04-21T09:52:15.088Z,102160.25
2019-04-21T09:54:54.748Z,102165.03
2019-04-21T09:57:31.171Z,102166.02
2019-04-21T10:00:05.066Z,102167.00
2019-04-21T10:02:43.864Z,102155.67
2019-04-21T10:05:10.057Z,102146.36
2019-04-21T10:07:44.643Z,102149.09
2019-04-21T10:10:27.985Z,102139.83
2019-04-21T10:13:10.957Z,102132.86
2019-04-21T10:15:48.528Z,102131.94
2019-04-21T10:18:22.298Z,102123.70
2019-04-21T10:20:55.343Z,102117.39
2019-04-21T10:23:30.212Z,102122.30
2019-04-21T10:26:04.282Z,102109.18
2019-04-21T10:28:39.122Z,102108.70
2019-04-21T10:31:12.567Z,102104.05
2019-04-21T10:33:48.438Z,102101.80
2019-04-21T10:36:22.777Z,102102.14
2019-04-21T10:38:58.965Z,102098.31
2019-04-21T10:41:33.194Z,102088.69
2019-04-21T10:44:23.183Z,102095.39
2019-04-21T10:47:06.877Z,102093.78
2019-04-21T10:49:42.217Z,102082.88
2019-04-21T10:52:37.387Z,102081.63
2019-04-21T10:55:44.804Z,102074.42
2019-04-21T10:58:20.328Z,102071.77
2019-04-21T11:01:16.789Z,102064.41
2019-04-21T11:04:07.477Z,102064.67
2019-04-21T11:07:05.191Z,102058.40
2019-04-21T11:09:36.093Z,102054.84
2019-04-21T11:12:10.837Z,102053.48
2019-04-21T11:14:53.599Z,102055.38
2019-04-21T11:17:36.597Z,102051.25
2019-04-21T11:20:12.888Z,102045.18
2019-04-21T11:22:57.722Z,102041.66
2019-04-21T11:25:48.191Z,102042.72
2019-04-21T11:28:22.909Z,102037.51
2019-04-21T11:30:57.237Z,102031.80
2019-04-21T11:33:31.356Z,102027.35
2019-04-21T11:36:07.028Z,102023.16
2019-04-21T11:39:05.374Z,102013.81
2019-04-21T11:41:23.856Z,102018.47
2019-04-21T11:44:07.790Z,102009.34
2019-04-21T11:46:42.614Z,102012.36
2019-04-21T11:49:17.982Z,102011.76
2019-04-21T11:51:53.123Z,102011.12
2019-04-21T11:54:26.942Z,102004.78
2019-04-21T11:57:07.978Z,101999.63
2019-04-21T11:59:45.893Z,101997.09
2019-04-21T12:02:28.289Z,101992.05
2019-04-21T12:05:03.514Z,101996.94
2019-04-21T12:07:38.994Z,101992.11
2019-04-21T12:10:13.438Z,101984.45
2019-04-21T12:12:47.543Z,101990.17
2019-04-21T12:15:22.918Z,101983.89
2019-04-21T12:18:06.278Z,101972.19
2019-04-21T12:20:51.806Z,101970.73
2019-04-21T12:23:24.770Z,101966.08
2019-04-21T12:25:59.119Z,101964.84
2019-04-21T12:28:41.941Z,101965.53
2019-04-21T12:31:34.126Z,101952.86
2019-04-21T12:34:12.082Z,101956.69
2019-04-21T12:36:47.055Z,101945.56
2019-04-21T12:39:32.738Z,101935.25
2019-04-21T12:42:16.782Z,101932.17
2019-04-21T12:44:51.747Z,101926.15
2019-04-21T12:47:27.942Z,101928.32
2019-04-21T12:50:14.890Z,101924.17
2019-04-21T12:52:59.911Z,101921.65
2019-04-21T12:55:37.449Z,101917.33
2019-04-21T12:58:11.255Z,101910.92
2019-04-21T13:00:45.489Z,101904.02
2019-04-21T13:03:23.313Z,101899.44
2019-04-21T13:05:56.103Z,101889.44
2019-04-21T13:08:41.544Z,101891.45
2019-04-21T13:11:15.156Z,101888.81
2019-04-21T13:13:50.321Z,101887.17
2019-04-21T13:16:25.860Z,101876.84
2019-04-21T13:19:00.773Z,101874.84
2019-04-21T13:21:36.141Z,101868.63
2019-04-21T13:24:11.680Z,101870.44
2019-04-21T13:26:58.484Z,101857.61
2019-04-21T13:29:42.104Z,101865.94
2019-04-21T13:32:16.548Z,101857.61
2019-04-21T13:34:52.771Z,101855.64
2019-04-21T13:37:27.703Z,101858.03
2019-04-21T13:40:39.764Z,101848.25
2019-04-21T13:43:17.082Z,101839.47
2019-04-21T13:46:03.812Z,101844.25
2019-04-21T13:48:40.326Z,101829.36
2019-04-21T13:51:15.362Z,101830.23
2019-04-21T13:53:49.544Z,101826.20
2019-04-21T13:56:24.774Z,101819.11
2019-04-21T13:59:00.021Z,101819.14
2019-04-21T14:01:37.666Z,101814.75
2019-04-21T14:04:11.599Z,101817.53
2019-04-21T14:06:46.070Z,101813.52
2019-04-21T14:09:40.327Z,101803.03
2019-04-21T14:12:05.387Z,101801.84
2019-04-21T14:14:50.358Z,101794.45
2019-04-21T14:17:40.595Z,101797.75
2019-04-21T14:20:15.684Z,101793.98
2019-04-21T14:22:51.813Z,101783.80
2019-04-21T14:25:37.575Z,101779.81
2019-04-21T14:28:15.667Z,101777.95
2019-04-21T14:31:02.227Z,101779.63
2019-04-21T14:33:37.952Z,101774.33
2019-04-21T14:36:12.834Z,101775.02
2019-04-21T14:38:46.966Z,101772.64
2019-04-21T14:41:22.252Z,101771.97
2019-04-21T14:43:56.939Z,101774.15
2019-04-21T14:46:40.364Z,101766.11
2019-04-21T14:49:27.057Z,101764.27
2019-04-21T14:52:10.809Z,101762.20
2019-04-21T14:55:16.699Z,101757.37
2019-04-21T14:57:51.609Z,101748.11
2019-04-21T15:00:31.181Z,101752.50
2019-04-21T15:03:05.580Z,101744.74
2019-04-21T15:05:53.425Z,101743.59
2019-04-21T15:08:44.939Z,101739.03
2019-04-21T15:11:19.922Z,101739.84
2019-04-21T15:13:55.611Z,101738.42
2019-04-21T15:16:40.793Z,101735.59
2019-04-21T15:19:16.884Z,101731.05
2019-04-21T15:21:52.407Z,101730.27
2019-04-21T15:24:30.024Z,101718.33
2019-04-21T15:27:16.934Z,101715.35
2019-04-21T15:29:51.140Z,101711.77
2019-04-21T15:32:40.227Z,101714.47
2019-04-21T15:35:15.308Z,101711.45
2019-04-21T15:37:49.976Z,101702.70
2019-04-21T15:40:36.354Z,101694.92
2019-04-21T15:43:08.546Z,101699.04
2019-04-21T15:45:42.492Z,101693.61
2019-04-21T15:48:16.117Z,101693.91
2019-04-21T15:50:51.818Z,101693.55
2019-04-21T15:53:27.746Z,101686.53
2019-04-21T15:56:46.975Z,101686.36
2019-04-21T16:00:02.733Z,101685.05
2019-04-21T16:02:44.892Z,101686.13
2019-04-21T16:05:20.693Z,101685.13
2019-04-21T16:07:56.051Z,101679.19
2019-04-21T16:10:47.144Z,101671.77
2019-04-21T16:13:23.688Z,101673.19
2019-04-21T16:15:59.230Z,101663.38
2019-04-21T16:18:34.259Z,101665.64
2019-04-21T16:21:20.056Z,101669.78
2019-04-21T16:24:09.007Z,101660.64
2019-04-21T16:26:52.863Z,101658.78
2019-04-21T16:29:37.378Z,101654.44
2019-04-21T16:32:14.620Z,101654.35
2019-04-21T16:34:54.244Z,101645.59
2019-04-21T16:37:23.562Z,101649.41
2019-04-21T16:39:56.453Z,101642.34
2019-04-21T16:42:30.058Z,101645.44
2019-04-21T16:45:05.341Z,101638.05
2019-04-21T16:47:40.006Z,101648.50
2019-04-21T16:50:16.013Z,101645.56
2019-04-21T16:53:22.013Z,101644.59
2019-04-21T16:56:13.039Z,101637.55
2019-04-21T16:58:52.850Z,101638.38
2019-04-21T17:01:49.367Z,101641.66
2019-04-21T17:04:38.315Z,101631.77
2019-04-21T17:07:26.147Z,101630.58
2019-04-21T17:09:59.185Z,101624.23
2019-04-21T17:12:35.605Z,101635.54
2019-04-21T17:15:33.790Z,101632.11
2019-04-21T17:18:07.853Z,101631.16
2019-04-21T17:20:37.034Z,101628.81
2019-04-21T17:23:04.023Z,101624.50
2019-04-21T17:25:39.194Z,101624.88
2019-04-21T17:28:13.232Z,101625.21
2019-04-21T17:30:48.461Z,101629.13
2019-04-21T17:33:27.897Z,101625.64
2019-04-21T17:36:07.492Z,101628.94
2019-04-21T17:39:04.795Z,101629.55
2019-04-21T17:42:05.581Z,101627.41
2019-04-21T17:44:29.798Z,101625.84
2019-04-21T17:47:25.303Z,101630.77
2019-04-21T17:50:02.613Z,101632.19
2019-04-21T17:52:47.202Z,101628.94
2019-04-21T17:55:40.172Z,101634.70
2019-04-21T17:58:27.867Z,101634.16
2019-04-21T18:01:13.541Z,101628.70
2019-04-21T18:03:54.380Z,101628.41
2019-04-21T18:06:10.095Z,101625.95
2019-04-21T18:08:55.064Z,101629.23
2019-04-21T18:11:28.946Z,101628.14
2019-04-21T18:13:47.330Z,101632.47
2019-04-21T18:16:33.646Z,101629.14
2019-04-21T18:19:08.590Z,101634.77
2019-04-21T18:22:06.521Z,101636.36
2019-04-21T18:24:48.858Z,101635.81
2019-04-21T18:27:15.517Z,101638.70
2019-04-21T18:29:54.666Z,101640.88
2019-04-21T18:32:36.126Z,101643.39
2019-04-21T18:35:24.657Z,101642.39
2019-04-21T18:38:28.106Z,101644.67
2019-04-21T18:41:27.889Z,101644.20
2019-04-21T18:44:38.790Z,101652.09
2019-04-21T18:47:22.452Z,101649.78
2019-04-21T18:50:19.862Z,101646.43
2019-04-21T18:53:09.025Z,101646.45
2019-04-21T18:55:41.870Z,101646.45
2019-04-21T18:58:13.826Z,101646.83
2019-04-21T19:00:49.384Z,101632.38
2019-04-21T19:03:33.969Z,101646.06
2019-04-21T19:06:10.902Z,101646.16
2019-04-21T19:11:39.295Z,101648.51
2019-04-21T19:14:27.997Z,101639.24
2019-04-21T19:17:01.120Z,101647.45
2019-04-21T19:19:41.195Z,101655.61
2019-04-21T19:22:00.141Z,101650.53
2019-04-21T19:24:50.585Z,101654.12
2019-04-21T19:30:23.460Z,101655.38
2019-04-21T19:32:37.550Z,101654.28
2019-04-21T19:34:59.943Z,101652.67
2019-04-21T19:37:40.083Z,101648.31
2019-04-21T19:40:33.038Z,101655.81
2019-04-21T19:43:17.082Z,101656.89
2019-04-21T19:45:54.050Z,101662.81
2019-04-21T19:48:36.661Z,101664.66
2019-04-21T19:51:08.834Z,101662.32
2019-04-21T19:53:41.597Z,101662.42
2019-04-21T19:56:05.926Z,101658.91
2019-04-21T19:58:47.496Z,101653.26
2019-04-21T20:01:23.536Z,101657.37
2019-04-21T20:04:08.452Z,101654.61
2019-04-21T20:07:01.762Z,101647.48
2019-04-21T20:09:45.149Z,101649.94
2019-04-21T20:12:39.926Z,101644.28
2019-04-21T20:15:20.290Z,101637.81
2019-04-21T20:17:42.199Z,101644.55
2019-04-21T20:20:07.013Z,101645.09
2019-04-21T20:22:45.096Z,101646.98
2019-04-21T20:25:21.306Z,101645.46
2019-04-21T20:28:01.608Z,101651.72
2019-04-21T20:30:48.835Z,101651.30
2019-04-21T20:33:49.285Z,101645.39
2019-04-21T20:36:21.108Z,101648.78
2019-04-21T20:38:47.085Z,101649.41
2019-04-21T20:41:22.367Z,101651.13
2019-04-21T20:44:06.097Z,101646.66
2019-04-21T20:46:39.885Z,101649.05
2019-04-21T20:49:14.430Z,101643.73
2019-04-21T20:52:17.504Z,101650.40
2019-04-21T20:54:48.311Z,101646.34
2019-04-21T20:57:39.813Z,101649.69
2019-04-21T21:00:19.277Z,101647.98
2019-04-21T21:03:09.286Z,101644.22
2019-04-21T21:05:27.287Z,101645.12
2019-04-21T21:08:15.037Z,101649.32
2019-04-21T21:10:38.580Z,101644.80
2019-04-21T21:13:37.866Z,101647.78
2019-04-21T21:16:19.933Z,101652.16
2019-04-21T21:19:08.201Z,101643.59
2019-04-21T21:21:24.350Z,101647.34
2019-04-21T21:24:05.487Z,101646.25
2019-04-21T21:26:36.794Z,101644.97
2019-04-21T21:29:18.503Z,101651.73
2019-04-21T21:31:55.891Z,101646.64
2019-04-21T21:34:29.381Z,101648.89
2019-04-21T21:37:14.188Z,101644.53
2019-04-21T21:39:54.852Z,101643.66
2019-04-21T21:42:05.078Z,101638.11
2019-04-21T21:44:39.427Z,101637.34
2019-04-21T21:47:48.592Z,101621.09
2019-04-21T21:50:18.329Z,101641.55
2019-04-21T21:52:57.162Z,101634.66
2019-04-21T21:55:21.565Z,101636.58
2019-04-21T21:58:01.149Z,101630.59
2019-04-21T22:00:32.221Z,101632.44
2019-04-21T22:03:17.554Z,101628.92
2019-04-21T22:05:59.709Z,101626.79
2019-04-21T22:08:28.276Z,101629.66
2019-04-21T22:11:03.274Z,101631.80
2019-04-21T22:13:47.621Z,101633.77
2019-04-21T22:16:27.536Z,101635.55
2019-04-21T22:19:21.913Z,101631.48
2019-04-21T22:22:00.700Z,101635.02
2019-04-21T22:24:46.408Z,101631.03
2019-04-21T22:27:09.449Z,101631.53
2019-04-21T22:29:56.976Z,101633.11
2019-04-21T22:32:43.712Z,101629.12
2019-04-21T22:35:31.532Z,101629.20
2019-04-21T22:38:25.672Z,101624.41
2019-04-21T22:41:09.305Z,101623.91
2019-04-21T22:43:43.406Z,101619.38
2019-04-21T22:46:24.410Z,101618.79
2019-04-21T22:49:04.934Z,101617.67
2019-04-21T22:51:53.855Z,101623.81
2019-04-21T22:54:34.305Z,101621.25
2019-04-21T22:57:12.282Z,101622.50
2019-04-21T22:59:40.553Z,101613.74
2019-04-21T23:02:22.169Z,101615.72
2019-04-21T23:04:54.643Z,101619.47
2019-04-21T23:07:26.703Z,101615.99
2019-04-21T23:10:01.091Z,101618.08
2019-04-21T23:12:38.690Z,101618.11
2019-04-21T23:15:15.400Z,101622.55
2019-04-21T23:18:11.958Z,101620.46
2019-04-21T23:20:47.733Z,101615.44
2019-04-21T23:23:32.027Z,101626.31
2019-04-21T23:25:55.954Z,101624.95
2019-04-21T23:28:40.498Z,101619.48
2019-04-21T23:31:11.886Z,101623.40
2019-04-21T23:33:29.007Z,101618.56
2019-04-21T23:36:11.055Z,101619.81
2019-04-21T23:38:43.974Z,101619.08
2019-04-21T23:41:13.134Z,101615.05
2019-04-21T23:43:53.112Z,101620.84
2019-04-21T23:46:28.171Z,101619.93
2019-04-21T23:49:15.130Z,101622.59
2019-04-21T23:51:42.038Z,101613.41
2019-04-21T23:54:09.148Z,101604.55
2019-04-21T23:56:46.235Z,101607.83
2019-04-21T23:59:18.641Z,101609.89
